Nearby METAR Reports

 

KNUQ - Moffett Nas/Mtn, California, USA
Distance from station: N 9mi, 14km
Updated: Mon, 13-Jul-2020 12:35am PDT

 Wind from NNE
Wind: NNE 8 mph , 13 km/h
Temperature: 63°F , 17°C
Dew Point: 57°F , 14°C
Humidity: 83%
Barometer: 29.88 inHg , 1011.9 hPa
Visibility: 10 miles , 16 km
2020/07/13 07:35 KNUQ 130735Z AUTO 03007KT 10SM 17/14 A2988 RMK AO2
KSJC - San Jose, California, USA
Distance from station: NE 9mi, 14km
Updated: Sun, 12-Jul-2020 11:53pm PDT
Clear
Clear
 Wind from NW
Wind: NW 8 mph , 13 km/h
Temperature: 64°F , 18°C
Dew Point: 54°F , 12°C
Humidity: 68%
Barometer: 29.88 inHg , 1011.9 hPa
Clouds: Clear
Visibility: 10 miles , 16 km
2020/07/13 06:53 KSJC 130653Z 32007KT 10SM CLR 18/12 A2988 RMK AO2 SLP117 LAST T01780122
 
KRHV - San Jose/Reid, California, USA
Distance from station: ENE 12mi, 19km
Updated: Sun, 12-Jul-2020 9:47pm PDT
NOT Current
Clear
Clear
 Wind from WNW
Wind: WNW 7 mph , 11 km/h
Temperature: 72°F , 22°C
Dew Point: 54°F , 12°C
Humidity: 53%
Barometer: 29.86 inHg , 1011.2 hPa
Clouds: Clear
Visibility: 10 miles , 16 km
2020/07/13 04:47 KRHV 130447Z 29006KT 10SM SKC 22/12 A2986 RMK LAST
KPAO - Palo Alto, California, USA
Distance from station: NNW 14mi, 23km
Updated: Sun, 12-Jul-2020 4:00pm PDT
NOT Current
Clear
Clear
 Wind from N
Wind: N 17 mph , 28 km/h
Temperature: 77°F , 25°C
Dew Point: 61°F , 16°C
Humidity: 57%
Barometer: 29.85 inHg , 1010.8 hPa
Clouds: Clear
Visibility: 10 miles , 16 km
2020/07/12 23:00 KPAO 122300Z 35015KT 10SM SKC 25/16 A2985 RMK LAST
 
KSQL - San Carlos Airpo, California, USA
Distance from station: NW 21mi, 34km
Updated: Mon, 13-Jul-2020 12:40am PDT
Clear
Clear
 Wind from W
Wind: W 3 mph , 6 km/h
Temperature: 63°F , 17°C
Dew Point: 54°F , 12°C
Humidity: 73%
Barometer: 29.88 inHg , 1011.9 hPa
Clouds: Clear
Visibility: 10 miles , 16 km
2020/07/13 07:40 KSQL 130740Z AUTO 27003KT 10SM CLR 17/12 A2988 RMK AO2
KWVI - Watsonville, California, USA
Distance from station: SSE 27mi, 44km
Updated: Sun, 12-Jul-2020 11:53pm PDT
Clear
Clear
 Wind from E
Wind: E 5 mph , 7 km/h
Temperature: 55°F , 13°C
Dew Point: 52°F , 11°C
Humidity: 88%
Barometer: 29.90 inHg , 1012.5 hPa
Clouds: Clear
Visibility: 10 miles , 16 km
2020/07/13 06:53 KWVI 130653Z AUTO 08004KT 10SM CLR 13/11 A2990 RMK AO2 SLP124 T01330111
 
KHWD - Hayward, California, USA
Distance from station: N 28mi, 44km
Updated: Sun, 12-Jul-2020 11:54pm PDT
Clear
Clear
 Wind from W
Wind: W 3 mph , 6 km/h
Temperature: 63°F , 17°C
Dew Point: 55°F , 13°C
Humidity: 77%
Barometer: 29.87 inHg , 1011.5 hPa
Clouds: Clear
Visibility: 10 miles , 16 km
2020/07/13 06:54 KHWD 130654Z AUTO 26003KT 10SM CLR 17/13 A2987 RMK AO2 SLP125 T01670128
KSFO - San Francisco, California, USA
Distance from station: NW 30mi, 49km
Updated: Sun, 12-Jul-2020 11:56pm PDT
Few Clouds
Few Clouds
 Wind from WNW
Wind: WNW 13 mph , 20 km/h
Temperature: 57°F , 14°C
Dew Point: 54°F , 12°C
Humidity: 88%
Barometer: 29.87 inHg , 1011.5 hPa
Clouds: Few Clouds
Visibility: 10 miles , 16 km
Cloud details: Few Clouds 600 ft
Few Clouds 1000 ft
2020/07/13 06:56 KSFO 130656Z 30011KT 10SM FEW006 FEW010 14/12 A2987 RMK AO2 SLP113 T01440117
 
KHAF - Half Moon Bay, California, USA
Distance from station: WNW 31mi, 50km
Updated: Mon, 13-Jul-2020 12:40am PDT
Mist, Overcast
Mist, Overcast
 Wind from NNW
Wind: NNW 7 mph , 11 km/h
Temperature: 55°F , 13°C
Dew Point: 54°F , 12°C
Humidity: 94%
Barometer: 29.92 inHg , 1013.2 hPa
Summary: Mist
Clouds: Overcast
Visibility: 3 miles , 5 km
Cloud details: Overcast 300 ft
2020/07/13 07:40 KHAF 130740Z AUTO 33006KT 3SM BR OVC003 13/12 A2992 RMK AO2
KOAK - Oakland, California, USA
Distance from station: NNW 31mi, 50km
Updated: Sun, 12-Jul-2020 11:53pm PDT
Few Clouds
Few Clouds
 Wind from W
Wind: W 12 mph , 19 km/h
Temperature: 63°F , 17°C
Dew Point: 55°F , 13°C
Humidity: 77%
Barometer: 29.88 inHg , 1011.9 hPa
Clouds: Few Clouds
Visibility: 10 miles , 16 km
Cloud details: Few Clouds 1000 ft
2020/07/13 06:53 KOAK 130653Z 26010KT 10SM FEW010 17/13 A2988 RMK AO2 SLP117 T01670128
 
KLVK - Livermore, California, USA
Distance from station: NNE 31mi, 51km
Updated: Sun, 12-Jul-2020 11:53pm PDT
Clear
Clear
 Wind from W
Wind: W 7 mph , 11 km/h
Temperature: 64°F , 18°C
Dew Point: 54°F , 12°C
Humidity: 68%
Barometer: 29.85 inHg , 1010.8 hPa
Clouds: Clear
Visibility: 10 miles , 16 km
2020/07/13 06:53 KLVK 130653Z AUTO 28006KT 10SM CLR 18/12 A2985 RMK AO2 SLP102 T01830117
KCVH - Hollister Muni, California, USA
Distance from station: SE 42mi, 68km
Updated: Mon, 13-Jul-2020 12:35am PDT
Clear
Clear
 Wind from calm
Wind: Calm
Temperature: 59°F , 15°C
Dew Point: 50°F , 10°C
Humidity: 72%
Barometer: 29.90 inHg , 1012.5 hPa
Clouds: Clear
Visibility: 10 miles , 16 km
2020/07/13 07:35 KCVH 130735Z AUTO 00000KT 10SM CLR 15/10 A2990 RMK A01
 
KSNS - Salinas, California, USA
Distance from station: SSE 48mi, 77km
Updated: Sun, 12-Jul-2020 11:53pm PDT
Clear
Clear
 Wind from NNW
Wind: NNW 13 mph , 20 km/h
Temperature: 61°F , 16°C
Dew Point: 54°F , 12°C
Humidity: 77%
Barometer: 29.89 inHg , 1012.2 hPa
Clouds: Clear
Visibility: 9 miles , 14 km
2020/07/13 06:53 KSNS 130653Z AUTO 34011KT 9SM CLR 16/12 A2989 RMK AO2 SLP130 T01610117
KMRY - Monterey, California, USA
Distance from station: SSE 49mi, 78km
Updated: Mon, 13-Jul-2020 12:36am PDT
Partly Cloudy
Partly Cloudy
 Wind from WSW
Wind: WSW 8 mph , 13 km/h
Temperature: 59°F , 15°C
Dew Point: 54°F , 12°C
Humidity: 82%
Barometer: 29.92 inHg , 1013.2 hPa
Clouds: Partly Cloudy
Visibility: 10 miles , 16 km
Cloud details: Partly Cloudy 800 ft
2020/07/13 07:36 KMRY 130736Z AUTO 24007KT 10SM SCT008 15/12 A2992 RMK AO2 T01500122
 
KCCR - Concord, California, USA
Distance from station: N 50mi, 81km
Updated: Sun, 12-Jul-2020 11:53pm PDT
Clear
Clear
 Wind from S
Wind: S 16 mph , 26 km/h
Temperature: 70°F , 21°C
Dew Point: 54°F , 12°C
Humidity: 57%
Barometer: 29.82 inHg , 1009.8 hPa
Clouds: Clear
Visibility: 10 miles , 16 km
2020/07/13 06:53 KCCR 130653Z AUTO 19014KT 10SM CLR 21/12 A2982 RMK AO2 SLP083 T02110117

Metar display script from Saratoga-Weather.org